Time;durP1;ratioP1;P1;durP2;ratioP2;P2;SDS_P1;SDS_P2;PMS_P1;PMS_P2;Temp;Humidity;BMP_temperature;BMP_pressure;BME280_temperature;BME280_humidity;BME280_pressure;Samples;Min_cycle;Max_cycle;Signal;HPM_P1;HPM_P2
2021/11/16 00:01:38;;;;;;;27.98;19.20;;;;;;;;;;5034878;28;20037;-54
2021/11/16 00:04:05;;;;;;;29.80;18.27;;;;;;;;;;5049465;28;20054;-58
2021/11/16 00:06:31;;;;;;;27.60;17.70;;;;;;;;;;5054086;28;20102;-58
2021/11/16 00:08:57;;;;;;;34.10;20.77;;;;;;;;;;5054702;28;20051;-58
2021/11/16 00:11:23;;;;;;;30.60;19.33;;;;;;;;;;5054466;28;20025;-58
2021/11/16 00:13:50;;;;;;;33.75;19.70;;;;;;;;;;5054501;28;20021;-58
2021/11/16 00:16:16;;;;;;;29.35;18.90;;;;;;;;;;5052391;28;20108;-59
2021/11/16 00:18:42;;;;;;;35.38;20.27;;;;;;;;;;5054252;28;20029;-58
2021/11/16 00:21:11;;;;;;;22.88;16.60;;;;;;;;;;5054554;28;20502;-57
2021/11/16 00:23:37;;;;;;;29.10;19.77;;;;;;;;;;5054389;28;20106;-58
2021/11/16 00:26:06;;;;;;;29.25;20.38;;;;;;;;;;5054639;28;20103;-58
2021/11/16 00:28:32;;;;;;;32.90;17.83;;;;;;;;;;5053866;28;20463;-57
2021/11/16 00:30:58;;;;;;;32.85;20.98;;;;;;;;;;5054051;28;20037;-57
2021/11/16 00:33:27;;;;;;;29.02;18.17;;;;;;;;;;5054272;28;20021;-58
2021/11/16 00:35:53;;;;;;;28.77;20.08;;;;;;;;;;5053939;28;20032;-58
2021/11/16 00:38:20;;;;;;;35.17;21.10;;;;;;;;;;5053422;28;20044;-57
2021/11/16 00:40:47;;;;;;;26.33;19.00;;;;;;;;;;5053881;28;20029;-59
2021/11/16 00:43:13;;;;;;;23.48;18.63;;;;;;;;;;5053903;28;20033;-57
2021/11/16 00:45:41;;;;;;;30.35;17.27;;;;;;;;;;5053711;28;20352;-58
2021/11/16 00:48:08;;;;;;;31.45;18.35;;;;;;;;;;5053327;28;20391;-58
2021/11/16 00:50:35;;;;;;;27.75;18.48;;;;;;;;;;5053974;28;20413;-56
2021/11/16 00:53:01;;;;;;;23.17;17.20;;;;;;;;;;5053798;28;20029;-58
2021/11/16 00:55:28;;;;;;;25.83;17.65;;;;;;;;;;5053773;28;20256;-57
2021/11/16 00:57:54;;;;;;;28.75;17.55;;;;;;;;;;5052636;28;20036;-55
2021/11/16 01:00:20;;;;;;;27.02;18.00;;;;;;;;;;5053535;28;20541;-57
2021/11/16 01:02:46;;;;;;;26.92;18.70;;;;;;;;;;5053637;28;20025;-58
2021/11/16 01:05:12;;;;;;;26.30;18.05;;;;;;;;;;5053417;28;20025;-57
2021/11/16 01:07:39;;;;;;;31.52;18.17;;;;;;;;;;5052542;28;20116;-58
2021/11/16 01:10:05;;;;;;;22.35;15.77;;;;;;;;;;5053368;28;20033;-58
2021/11/16 01:12:31;;;;;;;24.70;17.25;;;;;;;;;;5053117;28;20394;-58
2021/11/16 01:14:57;;;;;;;27.55;16.58;;;;;;;;;;5053123;28;20029;-58
2021/11/16 01:17:24;;;;;;;24.63;16.25;;;;;;;;;;5052850;28;20029;-57
2021/11/16 01:19:50;;;;;;;26.17;17.27;;;;;;;;;;5053121;28;20090;-57
2021/11/16 01:22:17;;;;;;;31.73;18.45;;;;;;;;;;5053298;28;20033;-57
2021/11/16 01:24:43;;;;;;;25.77;17.08;;;;;;;;;;5053054;28;20047;-57
2021/11/16 01:27:11;;;;;;;26.35;17.40;;;;;;;;;;5052171;28;20496;-57
2021/11/16 01:29:40;;;;;;;23.83;16.80;;;;;;;;;;5053056;28;20037;-56
2021/11/16 01:32:13;;;;;;;30.67;18.08;;;;;;;;;;5053166;28;20056;-57
2021/11/16 01:34:46;;;;;;;27.33;17.42;;;;;;;;;;5052875;28;20033;-58
2021/11/16 01:37:12;;;;;;;25.50;15.40;;;;;;;;;;5052108;28;20039;-58
2021/11/16 01:39:38;;;;;;;22.88;15.75;;;;;;;;;;5052778;28;20037;-57
2021/11/16 01:42:05;;;;;;;22.25;15.55;;;;;;;;;;5052910;28;20044;-58
2021/11/16 01:44:30;;;;;;;24.20;16.50;;;;;;;;;;5052943;28;20033;-57
2021/11/16 01:46:57;;;;;;;28.88;17.33;;;;;;;;;;5052412;28;20024;-57
2021/11/16 01:49:22;;;;;;;25.40;15.50;;;;;;;;;;5052664;28;20367;-57
2021/11/16 01:51:48;;;;;;;23.50;15.38;;;;;;;;;;5053069;28;20029;-57
2021/11/16 01:54:15;;;;;;;26.83;14.80;;;;;;;;;;5052513;28;20378;-57
2021/11/16 01:56:42;;;;;;;24.67;16.52;;;;;;;;;;5051668;28;20029;-58
2021/11/16 01:59:09;;;;;;;20.63;14.52;;;;;;;;;;5052493;28;20062;-55
2021/11/16 02:01:35;;;;;;;21.70;14.95;;;;;;;;;;5052512;28;20471;-57
2021/11/16 02:04:04;;;;;;;26.60;15.15;;;;;;;;;;5052342;28;20394;-58
2021/11/16 02:06:31;;;;;;;21.48;14.73;;;;;;;;;;5051679;28;20033;-58
2021/11/16 02:08:59;;;;;;;25.48;15.50;;;;;;;;;;5052315;28;20170;-55
2021/11/16 02:11:25;;;;;;;26.50;16.73;;;;;;;;;;5052612;28;20371;-57
2021/11/16 02:13:52;;;;;;;26.08;16.77;;;;;;;;;;5052226;28;20051;-58
2021/11/16 02:16:18;;;;;;;26.20;15.63;;;;;;;;;;5051668;28;20033;-58
2021/11/16 02:18:44;;;;;;;26.23;16.25;;;;;;;;;;5051674;28;20029;-57
2021/11/16 02:21:10;;;;;;;23.48;15.23;;;;;;;;;;5052183;28;20037;-58
2021/11/16 02:23:39;;;;;;;28.73;17.90;;;;;;;;;;5052013;28;20083;-58
2021/11/16 02:26:05;;;;;;;22.17;17.67;;;;;;;;;;5052165;28;20112;-57
2021/11/16 02:28:31;;;;;;;26.10;18.17;;;;;;;;;;5051471;28;20029;-57
2021/11/16 02:30:57;;;;;;;24.08;19.45;;;;;;;;;;5052161;28;20040;-58
2021/11/16 02:33:24;;;;;;;28.52;17.70;;;;;;;;;;5052077;28;20394;-58
2021/11/16 02:35:50;;;;;;;23.50;17.63;;;;;;;;;;5052042;28;20041;-58
2021/11/16 02:38:18;;;;;;;25.48;18.08;;;;;;;;;;5051251;28;20516;-57
2021/11/16 02:40:44;;;;;;;22.00;15.63;;;;;;;;;;5052012;28;20021;-58
2021/11/16 02:43:10;;;;;;;23.48;15.70;;;;;;;;;;5052141;28;20057;-58
2021/11/16 02:45:37;;;;;;;27.17;17.00;;;;;;;;;;5051799;28;20025;-58
2021/11/16 02:48:11;;;;;;;26.15;16.00;;;;;;;;;;5051220;28;20127;-57
2021/11/16 02:50:38;;;;;;;27.70;17.20;;;;;;;;;;5051750;28;20029;-57
2021/11/16 02:53:05;;;;;;;26.15;15.88;;;;;;;;;;5052097;28;20120;-58
2021/11/16 02:55:31;;;;;;;26.95;17.80;;;;;;;;;;5052117;28;20020;-57
2021/11/16 02:57:57;;;;;;;29.20;18.73;;;;;;;;;;5051043;28;20029;-58
2021/11/16 03:00:23;;;;;;;23.48;16.73;;;;;;;;;;5051587;28;20032;-58
2021/11/16 03:02:49;;;;;;;29.27;17.85;;;;;;;;;;5051647;28;20021;-57
2021/11/16 03:05:15;;;;;;;23.65;16.92;;;;;;;;;;5051502;28;20114;-56
2021/11/16 03:07:46;;;;;;;26.55;18.17;;;;;;;;;;5051279;28;20485;-57
2021/11/16 03:10:13;;;;;;;24.17;17.10;;;;;;;;;;5051867;28;20039;-58
2021/11/16 03:12:39;;;;;;;23.42;16.52;;;;;;;;;;5052051;28;20059;-58
2021/11/16 03:15:06;;;;;;;27.35;17.88;;;;;;;;;;5051523;28;20029;-58
2021/11/16 03:17:32;;;;;;;23.20;17.27;;;;;;;;;;5050757;28;20029;-55
2021/11/16 03:19:58;;;;;;;22.38;16.67;;;;;;;;;;5051696;28;20056;-58
2021/11/16 03:22:31;;;;;;;28.00;18.30;;;;;;;;;;5051812;28;20060;-58
2021/11/16 03:24:58;;;;;;;24.50;15.52;;;;;;;;;;5051547;28;20494;-58
2021/11/16 03:27:34;;;;;;;32.38;16.73;;;;;;;;;;5051034;28;20386;-58
2021/11/16 03:30:01;;;;;;;30.45;18.35;;;;;;;;;;5053602;28;20441;-58
2021/11/16 03:32:34;;;;;;;26.23;17.33;;;;;;;;;;5055131;28;20550;-57
2021/11/16 03:35:00;;;;;;;25.70;16.27;;;;;;;;;;5055339;28;20072;-57
2021/11/16 03:37:31;;;;;;;25.45;15.80;;;;;;;;;;5054563;28;20070;-58
2021/11/16 03:39:57;;;;;;;26.42;16.63;;;;;;;;;;5055239;28;20112;-58
2021/11/16 03:42:23;;;;;;;26.17;16.30;;;;;;;;;;5055236;28;20107;-57
2021/11/16 03:44:49;;;;;;;27.15;17.17;;;;;;;;;;5054659;28;20534;-57
2021/11/16 03:47:17;;;;;;;24.98;16.50;;;;;;;;;;5054470;28;20430;-58
2021/11/16 03:49:44;;;;;;;26.38;16.73;;;;;;;;;;5055308;28;20025;-58
2021/11/16 03:52:10;;;;;;;27.48;17.20;;;;;;;;;;5055023;28;20025;-57
2021/11/16 03:54:36;;;;;;;21.65;15.40;;;;;;;;;;5054853;28;20025;-57
2021/11/16 03:57:02;;;;;;;30.40;17.65;;;;;;;;;;5053990;28;20025;-57
2021/11/16 03:59:29;;;;;;;25.67;18.38;;;;;;;;;;5054665;28;20033;-57
2021/11/16 04:01:55;;;;;;;31.98;17.23;;;;;;;;;;5054743;28;20021;-58
2021/11/16 04:04:21;;;;;;;25.40;18.48;;;;;;;;;;5054810;28;20052;-58
2021/11/16 04:06:47;;;;;;;25.60;16.85;;;;;;;;;;5053881;28;20017;-57
2021/11/16 04:09:13;;;;;;;29.75;16.85;;;;;;;;;;5054566;28;20041;-57
2021/11/16 04:11:41;;;;;;;25.17;16.45;;;;;;;;;;5054435;28;20017;-58
2021/11/16 04:14:07;;;;;;;30.20;17.45;;;;;;;;;;5054682;28;20399;-58
2021/11/16 04:16:32;;;;;;;27.92;17.75;;;;;;;;;;5053385;28;20029;-57
2021/11/16 04:18:59;;;;;;;22.80;15.68;;;;;;;;;;5054594;28;20422;-58
2021/11/16 04:21:25;;;;;;;21.00;15.77;;;;;;;;;;5054338;28;20075;-58
2021/11/16 04:23:51;;;;;;;23.63;14.88;;;;;;;;;;5054285;28;20082;-57
2021/11/16 04:26:17;;;;;;;26.77;17.48;;;;;;;;;;5053394;28;20028;-59
2021/11/16 04:28:43;;;;;;;27.08;16.48;;;;;;;;;;5053710;28;20025;-58
2021/11/16 04:31:09;;;;;;;23.13;16.73;;;;;;;;;;5047958;28;20494;-57
2021/11/16 04:33:35;;;;;;;29.10;16.40;;;;;;;;;;5053098;28;20021;-57
2021/11/16 04:36:02;;;;;;;25.85;16.52;;;;;;;;;;5053842;28;20123;-58
2021/11/16 04:38:28;;;;;;;24.65;15.73;;;;;;;;;;5053452;28;20037;-56
2021/11/16 04:40:56;;;;;;;26.13;18.20;;;;;;;;;;5053249;28;20120;-58
2021/11/16 04:43:26;;;;;;;25.33;16.85;;;;;;;;;;5052396;28;20108;-56
2021/11/16 04:45:54;;;;;;;30.40;16.70;;;;;;;;;;5053692;28;20420;-58
2021/11/16 04:48:52;;;;;;;25.65;16.98;;;;;;;;;;5053190;28;20597;-58
2021/11/16 05:04:37;;;;;;;23.70;17.20;;;;;;;;;;5053905;28;20051;-58
2021/11/16 05:07:04;;;;;;;28.45;17.70;;;;;;;;;;5052908;28;20028;-58
2021/11/16 05:09:31;;;;;;;28.30;17.63;;;;;;;;;;5053593;28;20074;-55
2021/11/16 05:11:58;;;;;;;26.33;17.45;;;;;;;;;;5053396;28;20379;-55
2021/11/16 05:14:24;;;;;;;21.08;16.35;;;;;;;;;;5053266;28;20032;-58
2021/11/16 05:16:50;;;;;;;23.30;16.67;;;;;;;;;;5052518;28;20032;-58
2021/11/16 05:19:16;;;;;;;27.65;16.27;;;;;;;;;;5053388;28;20388;-57
2021/11/16 05:21:42;;;;;;;29.13;19.73;;;;;;;;;;5053240;28;20056;-58
2021/11/16 05:24:08;;;;;;;25.30;15.77;;;;;;;;;;5053343;28;20057;-56
2021/11/16 05:26:34;;;;;;;23.98;15.23;;;;;;;;;;5052478;28;20530;-56
2021/11/16 05:29:00;;;;;;;25.08;16.33;;;;;;;;;;5052997;28;20131;-56
2021/11/16 05:31:27;;;;;;;24.50;16.95;;;;;;;;;;5050940;28;20036;-58
2021/11/16 05:33:54;;;;;;;28.20;17.05;;;;;;;;;;5052910;28;20028;-59
2021/11/16 05:36:20;;;;;;;20.58;15.15;;;;;;;;;;5052183;28;20075;-59
2021/11/16 05:38:47;;;;;;;25.33;16.92;;;;;;;;;;5053039;28;20546;-59
2021/11/16 05:41:13;;;;;;;27.73;15.80;;;;;;;;;;5052875;28;20032;-59
2021/11/16 05:43:42;;;;;;;27.13;17.42;;;;;;;;;;5052711;28;20029;-59
2021/11/16 05:46:08;;;;;;;23.63;15.68;;;;;;;;;;5052630;28;20035;-58
2021/11/16 05:48:38;;;;;;;24.33;15.25;;;;;;;;;;5052570;28;20051;-59
2021/11/16 05:51:05;;;;;;;26.20;15.67;;;;;;;;;;5052770;28;20116;-56
2021/11/16 05:53:32;;;;;;;28.05;16.42;;;;;;;;;;5051750;28;20025;-58
2021/11/16 05:55:58;;;;;;;23.63;15.52;;;;;;;;;;5052387;28;20029;-57
2021/11/16 05:58:24;;;;;;;30.40;18.67;;;;;;;;;;5052030;28;20044;-58
2021/11/16 06:00:51;;;;;;;26.50;18.05;;;;;;;;;;5052729;28;20037;-57
2021/11/16 06:03:17;;;;;;;28.75;15.70;;;;;;;;;;5052187;28;20475;-56
2021/11/16 06:05:43;;;;;;;24.98;16.48;;;;;;;;;;5052470;28;20116;-58
2021/11/16 06:08:19;;;;;;;23.63;16.92;;;;;;;;;;5051682;28;20043;-58
2021/11/16 06:10:45;;;;;;;24.08;16.33;;;;;;;;;;5052341;28;20383;-57
2021/11/16 06:13:11;;;;;;;27.42;16.23;;;;;;;;;;5052396;28;20032;-58
2021/11/16 06:15:37;;;;;;;20.77;15.40;;;;;;;;;;5052503;28;20021;-56
2021/11/16 06:18:03;;;;;;;24.52;15.23;;;;;;;;;;5051597;28;20033;-58
2021/11/16 06:20:31;;;;;;;24.25;16.48;;;;;;;;;;5052195;28;20115;-58
2021/11/16 06:22:57;;;;;;;20.02;14.80;;;;;;;;;;5052116;28;20025;-58
2021/11/16 06:25:23;;;;;;;21.27;14.52;;;;;;;;;;5052239;28;20025;-57
2021/11/16 06:27:49;;;;;;;27.25;15.90;;;;;;;;;;5051477;28;20029;-58
2021/11/16 06:30:15;;;;;;;25.13;14.68;;;;;;;;;;5052267;28;20029;-58
2021/11/16 06:32:41;;;;;;;22.85;15.88;;;;;;;;;;5050263;28;20025;-58
2021/11/16 06:35:09;;;;;;;21.70;13.45;;;;;;;;;;5051945;28;20051;-57
2021/11/16 06:37:35;;;;;;;21.02;13.05;;;;;;;;;;5050982;28;20072;-57
2021/11/16 06:40:01;;;;;;;23.45;15.23;;;;;;;;;;5052276;28;20482;-58
2021/11/16 06:42:27;;;;;;;19.83;14.70;;;;;;;;;;5051932;28;20017;-58
2021/11/16 06:44:53;;;;;;;21.20;12.65;;;;;;;;;;5051928;28;20029;-57
2021/11/16 06:47:19;;;;;;;17.88;14.05;;;;;;;;;;5051307;28;20037;-58
2021/11/16 06:49:48;;;;;;;22.40;15.52;;;;;;;;;;5051856;28;20032;-58
2021/11/16 06:52:15;;;;;;;20.80;12.65;;;;;;;;;;5051712;28;20025;-58
2021/11/16 06:54:41;;;;;;;22.50;14.38;;;;;;;;;;5052026;28;20025;-58
2021/11/16 06:57:07;;;;;;;14.85;11.43;;;;;;;;;;5051130;28;20360;-58
2021/11/16 06:59:34;;;;;;;16.73;13.15;;;;;;;;;;5052171;28;20036;-58
2021/11/16 07:01:59;;;;;;;17.45;10.90;;;;;;;;;;5051740;28;20125;-57
2021/11/16 07:04:34;;;;;;;16.45;11.82;;;;;;;;;;5053433;28;20088;-58
2021/11/16 07:07:00;;;;;;;16.35;11.45;;;;;;;;;;5055183;28;20037;-53
2021/11/16 07:09:31;;;;;;;12.85;10.90;;;;;;;;;;5055969;28;20029;-57
2021/11/16 07:11:57;;;;;;;15.07;11.68;;;;;;;;;;5055900;28;20036;-56
2021/11/16 07:14:24;;;;;;;16.25;11.10;;;;;;;;;;5055764;28;20021;-57
2021/11/16 07:16:55;;;;;;;16.02;12.57;;;;;;;;;;5055001;28;20066;-57
2021/11/16 07:19:30;;;;;;;22.13;14.68;;;;;;;;;;5055618;28;20025;-55
2021/11/16 07:21:57;;;;;;;20.42;11.35;;;;;;;;;;5055678;28;20379;-57
2021/11/16 07:24:27;;;;;;;14.90;11.70;;;;;;;;;;5055405;28;20047;-56
2021/11/16 07:26:58;;;;;;;19.30;12.43;;;;;;;;;;5054624;28;20083;-57
2021/11/16 07:29:33;;;;;;;21.80;13.52;;;;;;;;;;5055335;28;20025;-57
2021/11/16 07:31:59;;;;;;;15.88;12.25;;;;;;;;;;5055190;28;20029;-55
2021/11/16 07:34:28;;;;;;;15.63;12.05;;;;;;;;;;5055231;28;20489;-57
2021/11/16 07:36:55;;;;;;;15.15;11.40;;;;;;;;;;5054103;28;20556;-57
2021/11/16 07:39:22;;;;;;;19.08;13.00;;;;;;;;;;5055186;28;20033;-57
2021/11/16 07:41:49;;;;;;;16.75;11.23;;;;;;;;;;5055046;28;20053;-57
2021/11/16 07:44:16;;;;;;;16.25;13.27;;;;;;;;;;5054809;28;20024;-58
2021/11/16 07:46:50;;;;;;;21.50;12.05;;;;;;;;;;5054573;28;20174;-57
2021/11/16 07:49:16;;;;;;;21.60;12.45;;;;;;;;;;5055175;28;20075;-58
2021/11/16 07:51:43;;;;;;;20.55;12.68;;;;;;;;;;5054859;28;20025;-57
2021/11/16 07:54:08;;;;;;;21.45;12.80;;;;;;;;;;5055032;28;20033;-57
2021/11/16 07:56:36;;;;;;;20.15;11.30;;;;;;;;;;5054263;28;20930;-57
2021/11/16 07:59:05;;;;;;;20.05;12.82;;;;;;;;;;5054714;28;20072;-56
2021/11/16 08:01:57;;;;;;;16.45;12.48;;;;;;;;;;5054992;28;20029;-56
2021/11/16 08:09:28;;;;;;;20.83;12.77;;;;;;;;;;5054395;28;20086;-56
2021/11/16 08:14:44;;;;;;;19.52;12.32;;;;;;;;;;5054683;28;20063;-55
2021/11/16 08:17:10;;;;;;;14.50;12.95;;;;;;;;;;5053219;28;20032;-57
2021/11/16 08:19:38;;;;;;;21.90;11.95;;;;;;;;;;5054018;28;20407;-55
2021/11/16 08:22:05;;;;;;;20.55;12.95;;;;;;;;;;5054284;28;20025;-57
2021/11/16 08:24:33;;;;;;;24.05;12.63;;;;;;;;;;5054065;28;20425;-56
2021/11/16 08:27:00;;;;;;;17.67;11.68;;;;;;;;;;5053494;28;20483;-56
2021/11/16 08:29:27;;;;;;;17.33;11.40;;;;;;;;;;5054696;28;20267;-56
2021/11/16 08:32:08;;;;;;;20.75;13.18;;;;;;;;;;5054437;28;20116;-57
2021/11/16 08:34:35;;;;;;;19.60;12.98;;;;;;;;;;5054218;28;20048;-57
2021/11/16 08:37:03;;;;;;;20.73;12.85;;;;;;;;;;5053170;28;20025;-57
2021/11/16 08:39:38;;;;;;;17.77;11.60;;;;;;;;;;5054179;28;20064;-58
2021/11/16 08:42:16;;;;;;;18.85;11.43;;;;;;;;;;5054150;28;20025;-56
2021/11/16 08:44:53;;;;;;;20.17;13.68;;;;;;;;;;5053774;28;20485;-57
2021/11/16 08:47:19;;;;;;;18.90;13.15;;;;;;;;;;5053572;28;20036;-56
2021/11/16 08:49:46;;;;;;;22.55;14.15;;;;;;;;;;5054070;28;20025;-57
2021/11/16 08:52:16;;;;;;;22.48;12.80;;;;;;;;;;5053899;28;20025;-57
2021/11/16 08:55:02;;;;;;;20.23;12.30;;;;;;;;;;5053839;28;20053;-57
2021/11/16 08:57:28;;;;;;;17.02;11.82;;;;;;;;;;5052935;28;20033;-56
2021/11/16 08:59:55;;;;;;;18.52;12.13;;;;;;;;;;5054010;28;20025;-56
2021/11/16 09:02:22;;;;;;;17.40;11.57;;;;;;;;;;5053653;28;20469;-56
2021/11/16 09:04:48;;;;;;;16.73;12.70;;;;;;;;;;5053611;28;20360;-56
2021/11/16 09:07:24;;;;;;;21.73;12.02;;;;;;;;;;5052753;28;20036;-55
2021/11/16 09:10:12;;;;;;;18.30;11.45;;;;;;;;;;5051697;28;20360;-57
2021/11/16 09:12:47;;;;;;;21.00;13.90;;;;;;;;;;5052149;28;20036;-57
2021/11/16 09:15:21;;;;;;;18.70;12.65;;;;;;;;;;5053466;28;20029;-57
2021/11/16 09:17:47;;;;;;;24.25;12.27;;;;;;;;;;5052647;28;20029;-56
2021/11/16 09:20:18;;;;;;;25.30;12.73;;;;;;;;;;5052105;28;20036;-57
2021/11/16 09:22:45;;;;;;;17.45;11.70;;;;;;;;;;5053394;28;20070;-56
2021/11/16 09:25:25;;;;;;;25.88;12.23;;;;;;;;;;5053339;28;20590;-57
2021/11/16 09:28:00;;;;;;;19.15;11.88;;;;;;;;;;5052728;28;20398;-57
2021/11/16 09:30:33;;;;;;;20.63;13.88;;;;;;;;;;5052989;28;20029;-57
2021/11/16 09:33:00;;;;;;;20.38;12.45;;;;;;;;;;5053363;28;20033;-56
2021/11/16 09:35:45;;;;;;;21.05;12.32;;;;;;;;;;5052912;28;20471;-57
2021/11/16 09:38:11;;;;;;;18.98;11.85;;;;;;;;;;5052095;28;20033;-57
2021/11/16 09:40:37;;;;;;;26.30;12.70;;;;;;;;;;5052920;28;20035;-57
2021/11/16 09:43:04;;;;;;;17.90;11.38;;;;;;;;;;5052772;28;20056;-57
2021/11/16 09:45:31;;;;;;;22.60;11.77;;;;;;;;;;5052759;28;20025;-57
2021/11/16 09:47:57;;;;;;;18.77;10.80;;;;;;;;;;5052342;28;20052;-57
2021/11/16 09:50:25;;;;;;;17.15;9.68;;;;;;;;;;5052815;28;20075;-57
2021/11/16 09:52:53;;;;;;;18.95;10.05;;;;;;;;;;5052583;28;20032;-57
2021/11/16 09:55:28;;;;;;;17.88;10.32;;;;;;;;;;5052617;28;20029;-57
2021/11/16 09:58:07;;;;;;;15.70;10.30;;;;;;;;;;5051701;28;20029;-57
2021/11/16 10:00:37;;;;;;;11.43;8.50;;;;;;;;;;5052609;28;20029;-56
2021/11/16 10:03:08;;;;;;;16.63;11.00;;;;;;;;;;5052547;28;20422;-57
2021/11/16 10:05:54;;;;;;;14.77;10.48;;;;;;;;;;5052544;28;20071;-57
2021/11/16 10:08:21;;;;;;;16.15;9.38;;;;;;;;;;5051453;28;20086;-56
2021/11/16 10:10:49;;;;;;;13.93;8.02;;;;;;;;;;5052426;28;20057;-56
2021/11/16 10:13:16;;;;;;;14.57;8.55;;;;;;;;;;5052357;28;20437;-56
2021/11/16 10:15:44;;;;;;;17.60;7.78;;;;;;;;;;5052201;28;20029;-57
2021/11/16 10:18:12;;;;;;;15.73;10.32;;;;;;;;;;5051533;28;20075;-54
2021/11/16 10:20:41;;;;;;;18.75;9.43;;;;;;;;;;5052037;28;20079;-55
2021/11/16 10:23:08;;;;;;;16.20;8.80;;;;;;;;;;5052409;28;20029;-56
2021/11/16 10:25:36;;;;;;;16.10;9.57;;;;;;;;;;5052034;28;20079;-57
2021/11/16 10:28:10;;;;;;;14.52;8.32;;;;;;;;;;5051515;28;20116;-57
2021/11/16 10:30:37;;;;;;;14.77;7.10;;;;;;;;;;5052139;28;20025;-56
2021/11/16 10:33:07;;;;;;;10.07;7.80;;;;;;;;;;5052047;28;20029;-57
2021/11/16 10:35:34;;;;;;;17.40;9.10;;;;;;;;;;5052027;28;20128;-55
2021/11/16 10:38:00;;;;;;;13.07;7.38;;;;;;;;;;5051187;28;20551;-56
2021/11/16 10:40:27;;;;;;;14.88;7.28;;;;;;;;;;5051412;28;20493;-56
2021/11/16 10:42:56;;;;;;;13.55;8.40;;;;;;;;;;5052008;28;20390;-56
2021/11/16 10:45:25;;;;;;;12.00;7.18;;;;;;;;;;5050380;28;20024;-58
2021/11/16 10:47:52;;;;;;;14.07;9.15;;;;;;;;;;5051482;28;20029;-56
2021/11/16 10:50:19;;;;;;;14.27;9.15;;;;;;;;;;5051862;28;20021;-57
2021/11/16 10:52:56;;;;;;;12.55;7.25;;;;;;;;;;5051961;28;20021;-57
2021/11/16 10:55:22;;;;;;;12.73;7.00;;;;;;;;;;5051800;28;20087;-57
2021/11/16 10:57:52;;;;;;;15.35;7.47;;;;;;;;;;5051125;28;20098;-57
2021/11/16 11:00:28;;;;;;;13.05;8.30;;;;;;;;;;5051626;28;20032;-56
2021/11/16 11:03:15;;;;;;;16.02;8.45;;;;;;;;;;5051961;28;20021;-57
2021/11/16 11:05:41;;;;;;;11.60;7.45;;;;;;;;;;5051812;28;20035;-57
2021/11/16 11:08:07;;;;;;;13.95;8.07;;;;;;;;;;5051116;28;20125;-57
2021/11/16 11:10:46;;;;;;;14.93;9.10;;;;;;;;;;5051414;28;20025;-59
2021/11/16 11:13:20;;;;;;;15.02;8.82;;;;;;;;;;5051912;28;20025;-56
2021/11/16 11:15:46;;;;;;;16.05;9.20;;;;;;;;;;5051681;28;20029;-57
2021/11/16 11:18:12;;;;;;;17.20;11.75;;;;;;;;;;5051118;28;20021;-57
2021/11/16 11:20:38;;;;;;;15.20;8.27;;;;;;;;;;5051506;28;20032;-58
2021/11/16 11:23:23;;;;;;;17.17;8.70;;;;;;;;;;5051499;28;20017;-55
2021/11/16 11:25:51;;;;;;;12.75;8.00;;;;;;;;;;5051410;28;20070;-57
2021/11/16 11:28:34;;;;;;;14.52;8.75;;;;;;;;;;5050965;28;20032;-57
2021/11/16 11:31:00;;;;;;;18.13;9.43;;;;;;;;;;5051510;28;20116;-58
2021/11/16 11:33:47;;;;;;;13.15;7.97;;;;;;;;;;5051388;28;20061;-57
2021/11/16 11:36:21;;;;;;;17.23;8.70;;;;;;;;;;5051113;28;20099;-56
2021/11/16 11:38:47;;;;;;;14.82;8.35;;;;;;;;;;5051639;28;20146;-57
2021/11/16 11:41:13;;;;;;;12.57;7.78;;;;;;;;;;5051352;28;20065;-57
2021/11/16 11:43:40;;;;;;;14.13;8.25;;;;;;;;;;5051479;28;20028;-57
2021/11/16 11:46:06;;;;;;;16.27;9.10;;;;;;;;;;5051153;28;20087;-56
2021/11/16 11:48:32;;;;;;;13.15;9.48;;;;;;;;;;5051134;28;20143;-57
2021/11/16 11:51:00;;;;;;;13.52;9.20;;;;;;;;;;5052085;28;20121;-57
2021/11/16 11:53:27;;;;;;;11.50;7.18;;;;;;;;;;5054965;28;20025;-57
2021/11/16 11:55:56;;;;;;;15.02;7.30;;;;;;;;;;5054723;28;20029;-57
2021/11/16 11:58:22;;;;;;;16.48;8.07;;;;;;;;;;5054253;28;20040;-56
2021/11/16 12:00:50;;;;;;;12.20;8.40;;;;;;;;;;5054738;28;20031;-57
2021/11/16 12:03:16;;;;;;;12.10;7.30;;;;;;;;;;5054863;28;20036;-57
2021/11/16 12:05:42;;;;;;;15.13;8.85;;;;;;;;;;5054716;28;20031;-56
2021/11/16 12:08:09;;;;;;;12.90;7.90;;;;;;;;;;5054141;28;20040;-58
2021/11/16 12:10:36;;;;;;;12.30;7.65;;;;;;;;;;5054639;28;20032;-57
2021/11/16 12:13:03;;;;;;;12.93;7.70;;;;;;;;;;5054386;28;20017;-57
2021/11/16 12:15:35;;;;;;;14.13;7.22;;;;;;;;;;5054715;28;20029;-58
2021/11/16 12:18:02;;;;;;;10.95;6.75;;;;;;;;;;5053877;28;20440;-59
2021/11/16 12:20:36;;;;;;;9.40;6.15;;;;;;;;;;5054931;28;20099;-55
2021/11/16 12:23:08;;;;;;;9.50;4.57;;;;;;;;;;5054553;28;20059;-56
2021/11/16 12:25:34;;;;;;;9.73;5.53;;;;;;;;;;5054223;28;20025;-56
2021/11/16 12:28:00;;;;;;;11.25;5.80;;;;;;;;;;5053376;28;20475;-56
2021/11/16 12:30:44;;;;;;;11.52;6.43;;;;;;;;;;5086798;28;20471;-56
2021/11/16 12:33:10;;;;;;;10.82;5.53;;;;;;;;;;5054252;28;20268;-54
2021/11/16 12:35:45;;;;;;;8.50;6.22;;;;;;;;;;5054389;28;20044;-56
2021/11/16 12:38:17;;;;;;;11.52;6.03;;;;;;;;;;5053252;28;20040;-57
2021/11/16 12:40:43;;;;;;;8.82;5.47;;;;;;;;;;5054123;28;20067;-57
2021/11/16 12:43:11;;;;;;;8.75;5.60;;;;;;;;;;5054117;28;20025;-56
2021/11/16 12:45:37;;;;;;;7.15;4.93;;;;;;;;;;5053871;28;20021;-56
2021/11/16 12:48:05;;;;;;;13.35;5.60;;;;;;;;;;5085342;28;20079;-55
2021/11/16 12:50:31;;;;;;;11.73;6.10;;;;;;;;;;5053876;28;20033;-57
2021/11/16 12:52:57;;;;;;;10.15;5.82;;;;;;;;;;5053975;28;20348;-57
2021/11/16 12:55:25;;;;;;;7.47;4.72;;;;;;;;;;5054047;28;20086;-56
2021/11/16 12:57:52;;;;;;;11.85;5.00;;;;;;;;;;5053077;28;20028;-57
2021/11/16 13:00:30;;;;;;;8.82;5.97;;;;;;;;;;5053764;28;20039;-56
2021/11/16 13:02:56;;;;;;;8.70;5.60;;;;;;;;;;5047867;28;20105;-56
2021/11/16 13:05:33;;;;;;;8.20;5.20;;;;;;;;;;5033599;28;20065;-57
2021/11/16 13:08:00;;;;;;;9.45;5.47;;;;;;;;;;5033022;28;20061;-56
2021/11/16 13:10:28;;;;;;;9.57;5.25;;;;;;;;;;5033851;28;20041;-57
2021/11/16 13:13:00;;;;;;;7.35;5.50;;;;;;;;;;5033557;28;20048;-57
2021/11/16 13:15:31;;;;;;;9.00;5.55;;;;;;;;;;5033569;28;20053;-58
2021/11/16 13:18:07;;;;;;;6.55;4.82;;;;;;;;;;5032754;28;20068;-57
2021/11/16 13:20:42;;;;;;;7.40;5.68;;;;;;;;;;5033607;28;20108;-57
2021/11/16 13:23:20;;;;;;;9.85;5.57;;;;;;;;;;5033394;28;20137;-56
2021/11/16 13:25:59;;;;;;;8.18;5.47;;;;;;;;;;5033221;28;20333;-56
2021/11/16 13:31:00;;;;;;;7.15;4.63;;;;;;;;;;5033491;28;20040;-56
2021/11/16 13:33:46;;;;;;;7.68;5.53;;;;;;;;;;5033188;28;20029;-57
2021/11/16 13:36:14;;;;;;;9.02;5.90;;;;;;;;;;5032488;28;20038;-57
2021/11/16 13:38:57;;;;;;;8.43;6.07;;;;;;;;;;5032890;28;20235;-56
2021/11/16 13:41:38;;;;;;;12.95;6.07;;;;;;;;;;5033283;28;20075;-57
2021/11/16 13:44:13;;;;;;;9.95;5.47;;;;;;;;;;5031890;28;20173;-58
2021/11/16 13:46:40;;;;;;;11.25;6.78;;;;;;;;;;5031864;28;20468;-56
2021/11/16 13:49:07;;;;;;;9.98;5.85;;;;;;;;;;5032763;28;20041;-56
2021/11/16 13:51:33;;;;;;;8.88;5.45;;;;;;;;;;5033011;28;20053;-56
2021/11/16 13:54:04;;;;;;;8.15;6.25;;;;;;;;;;5033183;28;20061;-55
2021/11/16 13:56:29;;;;;;;;;;;;;;;;;;5032449;28;20032;-57
2021/11/16 13:58:56;;;;;;;9.27;5.97;;;;;;;;;;5032842;28;20283;-56
2021/11/16 14:01:29;;;;;;;10.63;5.95;;;;;;;;;;5032484;28;20463;-56
2021/11/16 14:04:12;;;;;;;7.85;5.75;;;;;;;;;;5046032;28;20029;-57
2021/11/16 14:06:38;;;;;;;10.30;5.93;;;;;;;;;;5051933;28;20032;-57
2021/11/16 14:09:17;;;;;;;9.15;6.60;;;;;;;;;;5052566;28;20061;-56
2021/11/16 14:12:09;;;;;;;10.02;7.03;;;;;;;;;;5052370;28;20029;-56
2021/11/16 14:14:36;;;;;;;10.45;6.18;;;;;;;;;;5049929;28;20456;-56
2021/11/16 14:17:07;;;;;;;11.50;7.03;;;;;;;;;;5051664;28;20102;-56
2021/11/16 14:19:33;;;;;;;9.43;7.05;;;;;;;;;;5052614;28;20041;-57
2021/11/16 14:21:59;;;;;;;10.30;7.60;;;;;;;;;;5052241;28;20029;-57
2021/11/16 14:24:27;;;;;;;9.35;7.22;;;;;;;;;;5052225;28;20426;-54
2021/11/16 14:26:52;;;;;;;12.82;6.97;;;;;;;;;;5051742;28;20041;-57
2021/11/16 14:29:19;;;;;;;11.38;7.15;;;;;;;;;;5051918;28;20090;-56
2021/11/16 14:31:45;;;;;;;9.43;6.47;;;;;;;;;;5052191;28;20083;-57
2021/11/16 14:34:12;;;;;;;8.10;6.35;;;;;;;;;;5052073;28;20025;-57
2021/11/16 14:36:43;;;;;;;12.57;9.13;;;;;;;;;;5051329;28;20025;-57
2021/11/16 14:39:11;;;;;;;11.77;6.97;;;;;;;;;;5051939;28;20037;-57
2021/11/16 14:41:45;;;;;;;10.40;7.20;;;;;;;;;;5052276;28;20028;-56
2021/11/16 14:44:12;;;;;;;14.35;9.30;;;;;;;;;;5051994;28;20025;-56
2021/11/16 14:46:38;;;;;;;12.60;5.70;;;;;;;;;;5051471;28;20028;-56
2021/11/16 14:49:06;;;;;;;8.40;5.57;;;;;;;;;;5051972;28;20028;-57
2021/11/16 14:51:44;;;;;;;10.23;5.93;;;;;;;;;;5051891;28;20496;-57
2021/11/16 14:54:12;;;;;;;10.27;6.55;;;;;;;;;;5052237;28;20107;-57
2021/11/16 14:56:39;;;;;;;9.93;7.20;;;;;;;;;;5051286;28;20032;-56